createdAt,value
2022-07-30T00:01:15.677Z,69.60
2022-07-30T00:03:42.400Z,69.60
2022-07-30T00:06:09.037Z,69.40
2022-07-30T00:08:35.672Z,69.60
2022-07-30T00:11:02.286Z,69.70
2022-07-30T00:13:29.521Z,69.50
2022-07-30T00:15:56.140Z,69.60
2022-07-30T00:18:23.879Z,69.40
2022-07-30T00:20:50.521Z,69.50
2022-07-30T00:23:17.321Z,69.60
2022-07-30T00:25:44.242Z,69.40
2022-07-30T00:28:10.868Z,70.40
2022-07-30T00:30:38.712Z,69.50
2022-07-30T00:33:05.484Z,69.50
2022-07-30T00:35:35.016Z,69.50
2022-07-30T00:38:01.742Z,69.20
2022-07-30T00:40:28.517Z,69.10
2022-07-30T00:42:55.149Z,69.20
2022-07-30T00:45:21.919Z,69.10
2022-07-30T00:47:48.543Z,69.20
2022-07-30T00:50:15.900Z,69.30
2022-07-30T00:52:42.868Z,69.10
2022-07-30T00:55:12.425Z,69.10
2022-07-30T00:57:39.526Z,69.20
2022-07-30T01:00:09.862Z,69.10
2022-07-30T01:02:36.553Z,69.00
2022-07-30T01:05:04.112Z,69.00
2022-07-30T01:07:30.715Z,69.00
2022-07-30T01:09:57.352Z,69.00
2022-07-30T01:12:26.049Z,69.00
2022-07-30T01:14:53.649Z,69.00
2022-07-30T01:17:20.525Z,68.90
2022-07-30T01:19:49.644Z,69.10
2022-07-30T01:22:30.532Z,69.00
2022-07-30T01:25:16.186Z,69.00
2022-07-30T01:28:06.065Z,68.90
2022-07-30T01:30:35.964Z,69.10
2022-07-30T01:33:04.505Z,69.10
2022-07-30T01:35:34.264Z,69.10
2022-07-30T01:38:03.606Z,68.90
2022-07-30T01:40:31.409Z,68.80
2022-07-30T01:43:01.115Z,68.80
2022-07-30T01:45:30.498Z,69.10
2022-07-30T01:48:05.322Z,69.00
2022-07-30T01:50:33.605Z,68.80
2022-07-30T01:53:00.821Z,68.80
2022-07-30T01:55:32.315Z,68.90
2022-07-30T01:58:00.258Z,68.90
2022-07-30T02:00:30.717Z,68.90
2022-07-30T02:02:58.365Z,68.90
2022-07-30T02:05:25.453Z,69.00
2022-07-30T02:08:01.107Z,69.10
2022-07-30T02:10:39.364Z,69.00
2022-07-30T02:13:08.466Z,69.00
2022-07-30T02:15:42.008Z,68.80
2022-07-30T02:18:16.705Z,68.80
2022-07-30T02:20:49.552Z,68.90
2022-07-30T02:23:18.837Z,69.10
2022-07-30T02:25:49.435Z,69.10
2022-07-30T02:28:19.549Z,69.10
2022-07-30T02:30:58.974Z,68.90
2022-07-30T02:33:29.164Z,69.00
2022-07-30T02:35:56.898Z,68.80
2022-07-30T02:38:27.775Z,69.00
2022-07-30T02:41:00.246Z,69.20
2022-07-30T02:43:29.478Z,69.30
2022-07-30T02:46:03.877Z,69.10
2022-07-30T02:48:35.353Z,69.10
2022-07-30T02:51:03.929Z,69.00
2022-07-30T02:53:32.245Z,69.00
2022-07-30T02:56:01.079Z,68.90
2022-07-30T02:58:29.285Z,68.70
2022-07-30T03:00:57.491Z,69.00
2022-07-30T03:03:29.004Z,69.00
2022-07-30T03:05:57.704Z,69.00
2022-07-30T03:08:27.481Z,69.00
2022-07-30T03:10:55.841Z,69.00
2022-07-30T03:13:24.290Z,68.80
2022-07-30T03:15:52.579Z,69.00
2022-07-30T03:18:21.936Z,69.00
2022-07-30T03:20:54.832Z,69.00
2022-07-30T03:23:23.766Z,68.70
2022-07-30T03:26:01.271Z,68.80
2022-07-30T03:28:31.622Z,69.00
2022-07-30T03:30:59.605Z,68.90
2022-07-30T03:33:38.361Z,68.80
2022-07-30T03:36:06.914Z,68.90
2022-07-30T03:38:36.101Z,68.90
2022-07-30T03:41:03.312Z,68.80
2022-07-30T03:43:33.358Z,68.90
2022-07-30T03:46:02.944Z,68.70
2022-07-30T03:48:31.165Z,68.70
2022-07-30T03:50:59.659Z,69.30
2022-07-30T03:53:27.589Z,69.10
2022-07-30T03:55:54.596Z,69.00
2022-07-30T03:58:21.273Z,68.90
2022-07-30T04:00:50.011Z,69.00
2022-07-30T04:03:31.448Z,69.00
2022-07-30T04:05:58.523Z,69.20
2022-07-30T04:08:25.624Z,69.10
2022-07-30T04:10:52.616Z,68.90
2022-07-30T04:13:19.361Z,68.80
2022-07-30T04:16:04.987Z,68.80
2022-07-30T04:18:44.281Z,68.80
2022-07-30T04:21:16.113Z,68.70
2022-07-30T04:24:01.886Z,68.80
2022-07-30T04:26:33.406Z,68.80
2022-07-30T04:29:02.712Z,69.00
2022-07-30T04:31:35.210Z,68.80
2022-07-30T04:34:07.001Z,68.70
2022-07-30T04:36:34.585Z,68.70
2022-07-30T04:39:01.809Z,68.70
2022-07-30T04:41:28.557Z,68.70
2022-07-30T04:44:14.814Z,68.70
2022-07-30T04:46:41.616Z,68.60
2022-07-30T04:49:08.873Z,68.70
2022-07-30T04:51:38.213Z,68.50
2022-07-30T04:54:08.895Z,68.60
2022-07-30T04:56:53.554Z,68.70
2022-07-30T04:59:24.995Z,68.70
2022-07-30T05:01:53.651Z,68.70
2022-07-30T05:04:22.529Z,68.70
2022-07-30T05:06:49.913Z,68.70
2022-07-30T05:09:17.313Z,68.50
2022-07-30T05:11:51.258Z,68.70
2022-07-30T05:14:17.841Z,68.50
2022-07-30T05:16:44.469Z,68.70
2022-07-30T05:19:11.997Z,68.60
2022-07-30T05:21:38.578Z,68.50
2022-07-30T05:24:06.018Z,68.50
2022-07-30T05:26:32.778Z,68.50
2022-07-30T05:28:59.418Z,68.40
2022-07-30T05:31:26.760Z,68.50
2022-07-30T05:33:58.323Z,68.40
2022-07-30T05:36:27.871Z,68.40
2022-07-30T05:38:54.513Z,69.30
2022-07-30T05:41:31.734Z,68.60
2022-07-30T05:44:00.376Z,68.40
2022-07-30T05:46:27.283Z,68.40
2022-07-30T05:48:54.201Z,68.40
2022-07-30T05:51:22.022Z,68.50
2022-07-30T05:53:48.749Z,68.50
2022-07-30T05:56:15.373Z,68.40
2022-07-30T05:58:42.080Z,68.50
2022-07-30T06:01:08.861Z,68.50
2022-07-30T06:03:35.535Z,68.50
2022-07-30T06:06:05.342Z,69.30
2022-07-30T06:08:32.208Z,68.40
2022-07-30T06:10:58.847Z,68.50
2022-07-30T06:13:25.579Z,68.70
2022-07-30T06:15:52.555Z,68.50
2022-07-30T06:18:19.300Z,68.40
2022-07-30T06:20:51.611Z,68.40
2022-07-30T06:23:18.382Z,68.50
2022-07-30T06:25:44.992Z,68.50
2022-07-30T06:28:35.958Z,68.40
2022-07-30T06:30:58.692Z,68.30
2022-07-30T06:33:25.343Z,68.30
2022-07-30T06:35:51.990Z,68.10
2022-07-30T06:38:18.653Z,68.20
2022-07-30T06:40:45.261Z,68.30
2022-07-30T06:43:11.856Z,68.20
2022-07-30T06:45:39.395Z,68.30
2022-07-30T06:48:06.226Z,68.20
2022-07-30T06:50:32.963Z,68.10
2022-07-30T06:52:59.585Z,68.10
2022-07-30T06:55:26.194Z,68.10
2022-07-30T06:57:52.962Z,68.20
2022-07-30T07:00:20.564Z,68.10
2022-07-30T07:02:47.196Z,68.10
2022-07-30T07:05:14.183Z,68.00
2022-07-30T07:07:43.306Z,68.00
2022-07-30T07:10:13.099Z,67.90
2022-07-30T07:12:39.731Z,67.90
2022-07-30T07:15:06.950Z,67.90
2022-07-30T07:17:33.604Z,67.90
2022-07-30T07:20:02.554Z,67.80
2022-07-30T07:22:30.138Z,67.70
2022-07-30T07:24:56.974Z,67.80
2022-07-30T07:27:23.812Z,67.70
2022-07-30T07:30:01.348Z,67.70
2022-07-30T07:32:32.562Z,67.60
2022-07-30T07:34:59.230Z,67.50
2022-07-30T07:37:25.883Z,67.60
2022-07-30T07:39:52.501Z,67.60
2022-07-30T07:42:19.108Z,67.60
2022-07-30T07:44:45.722Z,67.50
2022-07-30T07:47:12.331Z,67.50
2022-07-30T07:49:39.150Z,67.50
2022-07-30T07:52:06.277Z,67.50
2022-07-30T07:54:33.186Z,67.50
2022-07-30T07:57:03.208Z,67.40
2022-07-30T07:59:40.378Z,67.40
2022-07-30T08:02:08.680Z,67.30
2022-07-30T08:04:36.192Z,67.30
2022-07-30T08:07:03.757Z,67.30
2022-07-30T08:09:42.034Z,67.00
2022-07-30T08:12:14.458Z,67.00
2022-07-30T08:14:41.373Z,66.90
2022-07-30T08:17:08.610Z,66.80
2022-07-30T08:19:35.611Z,66.80
2022-07-30T08:22:02.271Z,66.90
2022-07-30T08:24:28.893Z,66.70
2022-07-30T08:26:55.500Z,66.60
2022-07-30T08:29:22.317Z,66.70
2022-07-30T08:31:48.940Z,66.70
2022-07-30T08:34:15.648Z,66.80
2022-07-30T08:36:42.401Z,66.80
2022-07-30T08:39:09.047Z,66.70
2022-07-30T08:41:37.181Z,66.60
2022-07-30T08:44:06.855Z,66.70
2022-07-30T08:46:38.652Z,66.50
2022-07-30T08:49:10.983Z,66.40
2022-07-30T08:51:39.958Z,66.40
2022-07-30T08:54:06.921Z,66.30
2022-07-30T08:56:34.308Z,66.20
2022-07-30T08:59:01.770Z,66.30
2022-07-30T09:01:28.706Z,66.50
2022-07-30T09:03:55.401Z,66.40
2022-07-30T09:06:22.113Z,66.30
2022-07-30T09:08:48.732Z,66.20
2022-07-30T09:11:15.475Z,66.00
2022-07-30T09:13:44.307Z,65.80
2022-07-30T09:16:21.918Z,65.90
2022-07-30T09:18:49.299Z,66.00
2022-07-30T09:21:29.024Z,66.00
2022-07-30T09:24:01.930Z,66.00
2022-07-30T09:26:30.190Z,66.00
2022-07-30T09:29:16.161Z,66.10
2022-07-30T09:32:02.105Z,66.00
2022-07-30T09:34:30.805Z,66.00
2022-07-30T09:36:59.255Z,66.00
2022-07-30T09:39:40.160Z,65.90
2022-07-30T09:42:20.171Z,65.70
2022-07-30T09:44:47.937Z,65.50
2022-07-30T09:47:31.473Z,65.20
2022-07-30T09:50:10.169Z,65.30
2022-07-30T09:52:43.886Z,65.50
2022-07-30T09:55:34.722Z,65.50
2022-07-30T09:58:04.812Z,65.60
2022-07-30T10:00:33.986Z,65.60
2022-07-30T10:03:12.382Z,65.60
2022-07-30T10:05:39.479Z,65.60
2022-07-30T10:08:09.407Z,65.60
2022-07-30T10:10:49.147Z,65.50
2022-07-30T10:13:20.715Z,65.20
2022-07-30T10:15:50.093Z,65.30
2022-07-30T10:18:18.165Z,65.20
2022-07-30T10:20:45.337Z,65.20
2022-07-30T10:23:15.794Z,65.20
2022-07-30T10:25:48.926Z,65.20
2022-07-30T10:28:21.894Z,65.20
2022-07-30T10:30:53.683Z,65.20
2022-07-30T10:33:34.866Z,65.00
2022-07-30T10:36:03.680Z,65.80
2022-07-30T10:38:34.265Z,65.10
2022-07-30T10:41:47.357Z,65.20
2022-07-30T10:44:48.773Z,65.10
2022-07-30T10:47:18.685Z,65.10
2022-07-30T10:50:11.698Z,65.10
2022-07-30T10:52:53.268Z,65.10
2022-07-30T10:55:37.051Z,65.00
2022-07-30T10:58:12.481Z,65.00
2022-07-30T11:00:53.521Z,64.90
2022-07-30T11:03:40.502Z,65.00
2022-07-30T11:06:14.781Z,64.90
2022-07-30T11:08:48.283Z,65.00
2022-07-30T11:12:02.350Z,64.80
2022-07-30T11:14:07.867Z,64.80
2022-07-30T11:16:34.735Z,64.60
2022-07-30T11:19:55.351Z,64.70
2022-07-30T11:22:22.425Z,64.80
2022-07-30T11:24:49.832Z,64.60
2022-07-30T11:27:38.081Z,64.70
2022-07-30T11:30:24.929Z,65.50
2022-07-30T11:33:20.158Z,64.70
2022-07-30T11:36:06.440Z,64.50
2022-07-30T11:38:52.016Z,64.50
2022-07-30T11:41:18.686Z,64.50
2022-07-30T11:43:45.361Z,64.50
2022-07-30T11:46:15.787Z,64.50
2022-07-30T11:48:56.211Z,65.20
2022-07-30T11:51:23.531Z,64.50
2022-07-30T11:54:04.061Z,64.50
2022-07-30T11:56:31.420Z,64.30
2022-07-30T11:59:03.491Z,64.40
2022-07-30T12:01:30.933Z,64.30
2022-07-30T12:03:57.737Z,64.30
2022-07-30T12:06:24.611Z,64.20
2022-07-30T12:08:58.183Z,64.20
2022-07-30T12:11:36.739Z,64.20
2022-07-30T12:14:03.973Z,64.20
2022-07-30T12:16:32.367Z,64.20
2022-07-30T12:19:06.466Z,64.20
2022-07-30T12:21:34.018Z,64.10
2022-07-30T12:24:02.902Z,64.20
2022-07-30T12:26:32.289Z,64.10
2022-07-30T12:29:01.400Z,64.00
2022-07-30T12:31:28.290Z,64.00
2022-07-30T12:33:59.121Z,64.00
2022-07-30T12:36:31.432Z,64.00
2022-07-30T12:38:59.255Z,63.90
2022-07-30T12:41:43.225Z,63.90
2022-07-30T12:44:10.050Z,63.90
2022-07-30T12:46:41.394Z,63.90
2022-07-30T12:49:19.131Z,63.80
2022-07-30T12:52:00.213Z,63.70
2022-07-30T12:54:27.902Z,63.80
2022-07-30T12:57:03.243Z,63.80
2022-07-30T12:59:32.210Z,63.70
2022-07-30T13:02:03.287Z,63.60
2022-07-30T13:04:31.818Z,63.70
2022-07-30T13:07:10.379Z,63.60
2022-07-30T13:09:37.968Z,63.60
2022-07-30T13:12:06.250Z,63.60
2022-07-30T13:14:32.926Z,63.60
2022-07-30T13:16:59.756Z,63.50
2022-07-30T13:19:27.265Z,63.50
2022-07-30T13:21:53.890Z,63.50
2022-07-30T13:24:21.632Z,63.50
2022-07-30T13:26:50.860Z,63.50
2022-07-30T13:29:17.792Z,63.50
2022-07-30T13:31:44.451Z,63.40
2022-07-30T13:34:12.039Z,63.40
2022-07-30T13:36:39.210Z,63.40
2022-07-30T13:39:05.840Z,63.30
2022-07-30T13:41:33.518Z,63.30
2022-07-30T13:44:00.141Z,63.30
2022-07-30T13:46:26.778Z,63.30
2022-07-30T13:48:53.727Z,63.20
2022-07-30T13:51:20.514Z,63.10
2022-07-30T13:53:47.145Z,63.10
2022-07-30T13:56:13.761Z,63.10
2022-07-30T13:58:42.226Z,63.10
2022-07-30T14:01:17.564Z,63.00
2022-07-30T14:03:50.121Z,63.00
2022-07-30T14:06:18.817Z,63.00
2022-07-30T14:08:45.475Z,63.00
2022-07-30T14:11:12.433Z,62.90
2022-07-30T14:13:39.076Z,63.00
2022-07-30T14:16:17.886Z,62.90
2022-07-30T14:18:53.037Z,62.90
2022-07-30T14:21:19.718Z,62.80
2022-07-30T14:23:46.385Z,62.80
2022-07-30T14:26:13.937Z,62.90
2022-07-30T14:28:40.601Z,62.80
2022-07-30T14:31:07.224Z,62.70
2022-07-30T14:33:33.823Z,62.70
2022-07-30T14:36:00.427Z,62.70
2022-07-30T14:38:27.083Z,62.70
2022-07-30T14:40:53.690Z,62.60
2022-07-30T14:43:20.316Z,62.60
2022-07-30T14:45:50.476Z,62.60
2022-07-30T14:48:17.489Z,62.60
2022-07-30T14:51:03.699Z,62.60
2022-07-30T14:53:31.089Z,62.60
2022-07-30T14:55:57.799Z,62.50
2022-07-30T14:58:24.466Z,62.50
2022-07-30T15:00:51.460Z,62.60
2022-07-30T15:03:18.474Z,62.60
2022-07-30T15:05:51.797Z,62.50
2022-07-30T15:08:19.013Z,62.40
2022-07-30T15:10:45.601Z,62.50
2022-07-30T15:13:12.794Z,62.30
2022-07-30T15:15:41.100Z,62.40
2022-07-30T15:18:10.674Z,62.40
2022-07-30T15:20:37.333Z,62.40
2022-07-30T15:23:04.256Z,62.30
2022-07-30T15:25:31.314Z,62.40
2022-07-30T15:27:58.078Z,62.40
2022-07-30T15:30:24.755Z,62.40
2022-07-30T15:32:51.893Z,62.30
2022-07-30T15:35:18.490Z,62.20
2022-07-30T15:37:45.101Z,62.10
2022-07-30T15:40:11.863Z,62.20
2022-07-30T15:42:38.818Z,62.20
2022-07-30T15:45:17.307Z,62.10
2022-07-30T15:47:44.935Z,62.10
2022-07-30T15:50:11.584Z,62.10
2022-07-30T15:52:38.574Z,62.10
2022-07-30T15:55:06.551Z,62.10
2022-07-30T15:57:33.285Z,62.00
2022-07-30T15:59:59.938Z,62.00
2022-07-30T16:02:26.600Z,62.00
2022-07-30T16:04:53.319Z,62.00
2022-07-30T16:07:19.918Z,62.00
2022-07-30T16:09:46.555Z,62.00
2022-07-30T16:12:13.176Z,62.00
2022-07-30T16:14:39.801Z,62.00
2022-07-30T16:17:10.542Z,62.00
2022-07-30T16:19:41.009Z,61.90
2022-07-30T16:22:11.949Z,61.90
2022-07-30T16:24:41.809Z,61.90
2022-07-30T16:27:08.437Z,61.90
2022-07-30T16:29:35.065Z,61.80
2022-07-30T16:32:02.563Z,61.80
2022-07-30T16:34:29.274Z,61.80
2022-07-30T16:36:55.926Z,61.80
2022-07-30T16:39:22.606Z,61.80
2022-07-30T16:41:49.696Z,61.80
2022-07-30T16:44:16.299Z,61.70
2022-07-30T16:46:42.900Z,61.70
2022-07-30T16:49:09.684Z,61.70
2022-07-30T16:51:36.434Z,61.70
2022-07-30T16:54:03.478Z,61.50
2022-07-30T16:56:30.109Z,61.60
2022-07-30T16:58:56.738Z,61.50
2022-07-30T17:01:23.421Z,61.50
2022-07-30T17:03:50.142Z,61.50
2022-07-30T17:06:16.728Z,61.50
2022-07-30T17:08:43.385Z,61.50
2022-07-30T17:11:11.003Z,61.50
2022-07-30T17:13:45.965Z,61.40
2022-07-30T17:16:13.230Z,61.40
2022-07-30T17:18:39.821Z,61.40
2022-07-30T17:21:06.407Z,61.40
2022-07-30T17:23:35.861Z,61.40
2022-07-30T17:26:03.308Z,61.40
2022-07-30T17:28:29.985Z,61.40
2022-07-30T17:30:56.594Z,61.40
2022-07-30T17:33:23.269Z,61.30
2022-07-30T17:35:49.848Z,61.30
2022-07-30T17:38:16.456Z,61.30
2022-07-30T17:40:43.214Z,61.30
2022-07-30T17:43:11.430Z,61.20
2022-07-30T17:45:41.227Z,61.20
2022-07-30T17:48:09.577Z,61.20
2022-07-30T17:50:36.601Z,61.20
2022-07-30T17:53:04.753Z,61.30
2022-07-30T17:55:34.838Z,61.30
2022-07-30T17:58:03.009Z,61.30
2022-07-30T18:00:29.781Z,61.30
2022-07-30T18:02:56.491Z,61.30
2022-07-30T18:05:23.110Z,61.30
2022-07-30T18:07:49.876Z,61.30
2022-07-30T18:10:16.665Z,61.30
2022-07-30T18:12:48.425Z,61.30
2022-07-30T18:15:16.801Z,61.40
2022-07-30T18:17:43.448Z,61.30
2022-07-30T18:20:10.543Z,61.40
2022-07-30T18:22:37.489Z,61.40
2022-07-30T18:25:05.063Z,61.40
2022-07-30T18:27:34.458Z,61.40
2022-07-30T18:30:01.121Z,61.40
2022-07-30T18:32:27.740Z,62.10
2022-07-30T18:34:54.401Z,61.40
2022-07-30T18:37:20.977Z,61.40
2022-07-30T18:39:47.573Z,61.40
2022-07-30T18:42:14.225Z,61.40
2022-07-30T18:44:40.860Z,61.40
2022-07-30T18:47:07.456Z,61.30
2022-07-30T18:49:37.029Z,61.40
2022-07-30T18:52:05.974Z,61.40
2022-07-30T18:54:32.970Z,61.40
2022-07-30T18:56:59.584Z,61.40
2022-07-30T18:59:26.255Z,61.40
2022-07-30T19:01:52.936Z,61.40
2022-07-30T19:04:19.708Z,61.40
2022-07-30T19:06:46.401Z,61.40
2022-07-30T19:09:17.657Z,61.40
2022-07-30T19:11:46.210Z,61.40
2022-07-30T19:14:14.023Z,61.40
2022-07-30T19:16:42.124Z,61.40
2022-07-30T19:19:09.576Z,61.40
2022-07-30T19:21:36.264Z,61.40
2022-07-30T19:24:03.688Z,61.40
2022-07-30T19:26:30.575Z,61.40
2022-07-30T19:28:57.453Z,61.40
2022-07-30T19:31:24.385Z,61.40
2022-07-30T19:33:51.061Z,61.40
2022-07-30T19:36:20.623Z,61.40
2022-07-30T19:38:48.793Z,61.30
2022-07-30T19:41:16.271Z,61.40
2022-07-30T19:43:43.153Z,61.40
2022-07-30T19:46:24.196Z,61.40
2022-07-30T19:48:50.949Z,61.40
2022-07-30T19:51:20.905Z,61.40
2022-07-30T19:53:52.270Z,61.40
2022-07-30T19:56:19.613Z,61.40
2022-07-30T19:58:46.431Z,61.40
2022-07-30T20:01:15.554Z,61.40
2022-07-30T20:03:45.297Z,61.40
2022-07-30T20:06:14.898Z,61.40
2022-07-30T20:08:42.297Z,61.40
2022-07-30T20:11:12.086Z,61.30
2022-07-30T20:13:47.846Z,61.80
2022-07-30T20:16:15.553Z,61.30
2022-07-30T20:18:43.036Z,61.30
2022-07-30T20:21:14.962Z,61.30
2022-07-30T20:23:57.901Z,61.30
2022-07-30T20:26:29.026Z,61.30
2022-07-30T20:28:55.913Z,61.20
2022-07-30T20:31:23.895Z,61.30
2022-07-30T20:33:52.502Z,61.30
2022-07-30T20:36:19.491Z,61.20
2022-07-30T20:38:46.890Z,61.20
2022-07-30T20:41:14.799Z,61.20
2022-07-30T20:43:51.413Z,61.20
2022-07-30T20:46:23.311Z,61.20
2022-07-30T20:48:51.322Z,61.20
2022-07-30T20:51:18.035Z,61.20
2022-07-30T20:53:45.411Z,61.20
2022-07-30T20:56:13.408Z,61.20
2022-07-30T20:58:40.921Z,61.20
2022-07-30T21:01:07.715Z,61.20
2022-07-30T21:03:34.424Z,61.20
2022-07-30T21:06:02.856Z,62.00
2022-07-30T21:08:29.556Z,61.20
2022-07-30T21:10:57.582Z,61.30
2022-07-30T21:13:26.951Z,61.20
2022-07-30T21:16:02.265Z,61.50
2022-07-30T21:18:30.744Z,61.30
2022-07-30T21:20:57.609Z,61.30
2022-07-30T21:23:24.742Z,61.30
2022-07-30T21:26:00.715Z,61.30
2022-07-30T21:28:35.629Z,61.30
2022-07-30T21:31:03.978Z,61.30
2022-07-30T21:33:35.673Z,61.30
2022-07-30T21:36:02.265Z,61.20
2022-07-30T21:38:30.556Z,61.30
2022-07-30T21:40:58.460Z,61.30
2022-07-30T21:43:29.655Z,61.30
2022-07-30T21:46:00.071Z,61.30
2022-07-30T21:48:30.606Z,61.30
2022-07-30T21:50:58.455Z,61.30
2022-07-30T21:56:12.167Z,61.30
2022-07-30T21:58:38.836Z,61.30
2022-07-30T22:01:16.637Z,61.30
2022-07-30T22:04:01.225Z,61.30
2022-07-30T22:06:38.411Z,61.30
2022-07-30T22:09:19.955Z,61.30
2022-07-30T22:11:54.853Z,61.40
2022-07-30T22:14:22.169Z,61.30
2022-07-30T22:16:48.862Z,61.30
2022-07-30T22:19:15.790Z,61.20
2022-07-30T22:21:46.614Z,61.30
2022-07-30T22:24:29.916Z,61.30
2022-07-30T22:27:01.512Z,61.40
2022-07-30T22:29:34.132Z,61.30
2022-07-30T22:32:03.846Z,61.30
2022-07-30T22:34:30.971Z,61.40
2022-07-30T22:36:57.788Z,61.40
2022-07-30T22:39:31.651Z,61.20
2022-07-30T22:42:12.742Z,61.30
2022-07-30T22:44:39.597Z,61.40
2022-07-30T22:49:59.296Z,61.30
2022-07-30T22:52:27.599Z,61.30
2022-07-30T22:54:57.095Z,61.30
2022-07-30T22:57:37.871Z,61.20
2022-07-30T23:00:07.168Z,61.20
2022-07-30T23:02:38.882Z,61.20
2022-07-30T23:05:06.638Z,61.40
2022-07-30T23:07:39.567Z,61.30
2022-07-30T23:10:17.867Z,61.30
2022-07-30T23:12:30.469Z,61.30
2022-07-30T23:12:33.009Z,61.30
2022-07-30T23:12:47.991Z,61.30
2022-07-30T23:15:14.962Z,61.20
2022-07-30T23:17:43.287Z,61.20
2022-07-30T23:20:13.056Z,61.20
2022-07-30T23:22:40.845Z,61.30
2022-07-30T23:25:10.147Z,61.30
2022-07-30T23:27:37.423Z,61.20
2022-07-30T23:30:05.089Z,61.30
2022-07-30T23:32:32.166Z,61.20
2022-07-30T23:34:58.746Z,61.20
2022-07-30T23:37:25.604Z,61.20
2022-07-30T23:39:52.911Z,61.30
2022-07-30T23:42:19.598Z,61.20
2022-07-30T23:44:46.205Z,61.20
2022-07-30T23:47:12.806Z,61.20
2022-07-30T23:49:39.418Z,61.20
2022-07-30T23:52:06.093Z,61.20
2022-07-30T23:54:32.853Z,61.20
2022-07-30T23:56:59.558Z,61.20
2022-07-30T23:59:40.857Z,61.20
